Terminal Aerodrome Forecast
Issued by NWS

Home | Current Version | Previous Version | Text Only | Print | Product List | Glossary On
Versions: 1 2 3 4 5 6 7 8 9 10 11 12 13 14 15 16 17
000
FTUS45 KLKN 292323
TAFTPH
TAF
KTPH 292323Z 3000/3024 32012G20KT P6SM FEW040 BKN090
     FM300200 34016G26KT P6SM SCT035 BKN080
     FM301100 35026G38KT P6SM VCSH SCT035 BKN060
     FM301600 35030G42KT P6SM SCT040 BKN080=

USA.gov is the U.S. government's official web portal to all federal, state and local government web resources and services.